sensor_id;sensor_type;location;lat;lon;timestamp;pressure;altitude;pressure_sealevel;temperature;humidity
70546;BME280;58098;51.680;5.134;2023-02-22T00:00:37;101658.72;;;6.22;100.00
70546;BME280;58098;51.680;5.134;2023-02-22T00:03:15;101663.41;;;6.32;100.00
70546;BME280;58098;51.680;5.134;2023-02-22T00:05:42;101662.66;;;6.30;100.00
70546;BME280;58098;51.680;5.134;2023-02-22T00:08:19;101643.94;;;6.24;100.00
70546;BME280;58098;51.680;5.134;2023-02-22T00:10:45;101651.44;;;6.30;100.00
70546;BME280;58098;51.680;5.134;2023-02-22T00:13:12;101626.25;;;6.15;100.00
70546;BME280;58098;51.680;5.134;2023-02-22T00:15:39;101627.38;;;6.09;100.00
70546;BME280;58098;51.680;5.134;2023-02-22T00:18:11;101630.03;;;6.08;100.00
70546;BME280;58098;51.680;5.134;2023-02-22T00:20:36;101631.09;;;6.04;100.00
70546;BME280;58098;51.680;5.134;2023-02-22T00:23:04;101642.00;;;6.10;100.00
70546;BME280;58098;51.680;5.134;2023-02-22T00:25:31;101641.31;;;6.07;100.00
70546;BME280;58098;51.680;5.134;2023-02-22T00:27:59;101641.31;;;6.07;100.00
70546;BME280;58098;51.680;5.134;2023-02-22T00:30:26;101650.00;;;6.06;100.00
70546;BME280;58098;51.680;5.134;2023-02-22T00:32:54;101643.44;;;5.98;100.00
70546;BME280;58098;51.680;5.134;2023-02-22T00:35:22;101642.38;;;6.03;100.00
70546;BME280;58098;51.680;5.134;2023-02-22T00:37:50;101639.16;;;5.97;100.00
70546;BME280;58098;51.680;5.134;2023-02-22T00:40:19;101636.66;;;5.96;100.00
70546;BME280;58098;51.680;5.134;2023-02-22T00:42:44;101635.81;;;5.95;100.00
70546;BME280;58098;51.680;5.134;2023-02-22T00:45:14;101646.78;;;6.01;100.00
70546;BME280;58098;51.680;5.134;2023-02-22T00:47:39;101637.47;;;5.96;100.00
70546;BME280;58098;51.680;5.134;2023-02-22T00:50:05;101651.81;;;6.04;100.00
70546;BME280;58098;51.680;5.134;2023-02-22T00:52:30;101647.69;;;5.99;100.00
70546;BME280;58098;51.680;5.134;2023-02-22T00:54:56;101633.44;;;5.91;100.00
70546;BME280;58098;51.680;5.134;2023-02-22T00:57:23;101631.53;;;5.94;100.00
70546;BME280;58098;51.680;5.134;2023-02-22T00:59:49;101638.63;;;5.91;100.00
70546;BME280;58098;51.680;5.134;2023-02-22T01:02:15;101632.28;;;5.96;100.00
70546;BME280;58098;51.680;5.134;2023-02-22T01:04:40;101626.84;;;6.03;100.00
70546;BME280;58098;51.680;5.134;2023-02-22T01:07:06;101625.22;;;6.00;100.00
70546;BME280;58098;51.680;5.134;2023-02-22T01:09:31;101615.09;;;5.95;100.00
70546;BME280;58098;51.680;5.134;2023-02-22T01:11:57;101602.91;;;5.79;100.00
70546;BME280;58098;51.680;5.134;2023-02-22T01:14:24;101616.47;;;5.84;100.00
70546;BME280;58098;51.680;5.134;2023-02-22T01:16:54;101618.88;;;5.88;100.00
70546;BME280;58098;51.680;5.134;2023-02-22T01:19:20;101618.94;;;5.87;100.00
70546;BME280;58098;51.680;5.134;2023-02-22T01:21:46;101610.44;;;5.83;100.00
70546;BME280;58098;51.680;5.134;2023-02-22T01:24:12;101611.25;;;5.85;100.00
70546;BME280;58098;51.680;5.134;2023-02-22T01:26:48;101619.50;;;5.93;100.00
70546;BME280;58098;51.680;5.134;2023-02-22T01:29:15;101606.06;;;5.85;100.00
70546;BME280;58098;51.680;5.134;2023-02-22T01:31:41;101615.84;;;5.97;100.00
70546;BME280;58098;51.680;5.134;2023-02-22T01:34:10;101608.31;;;5.93;100.00
70546;BME280;58098;51.680;5.134;2023-02-22T01:36:37;101615.38;;;5.89;100.00
70546;BME280;58098;51.680;5.134;2023-02-22T01:39:04;101604.78;;;5.75;100.00
70546;BME280;58098;51.680;5.134;2023-02-22T01:41:29;101597.78;;;5.77;100.00
70546;BME280;58098;51.680;5.134;2023-02-22T01:43:55;101611.88;;;5.90;100.00
70546;BME280;58098;51.680;5.134;2023-02-22T01:46:26;101602.41;;;5.89;100.00
70546;BME280;58098;51.680;5.134;2023-02-22T01:49:02;101602.97;;;5.96;100.00
70546;BME280;58098;51.680;5.134;2023-02-22T01:51:33;101601.28;;;5.95;100.00
70546;BME280;58098;51.680;5.134;2023-02-22T01:54:15;101583.38;;;5.90;100.00
70546;BME280;58098;51.680;5.134;2023-02-22T01:56:50;101592.97;;;5.88;100.00
70546;BME280;58098;51.680;5.134;2023-02-22T01:59:19;101576.09;;;5.80;100.00
70546;BME280;58098;51.680;5.134;2023-02-22T02:01:46;101577.59;;;5.85;100.00
70546;BME280;58098;51.680;5.134;2023-02-22T02:04:16;101574.34;;;5.80;100.00
70546;BME280;58098;51.680;5.134;2023-02-22T02:06:43;101582.31;;;5.94;100.00
70546;BME280;58098;51.680;5.134;2023-02-22T02:09:20;101562.03;;;5.85;100.00
70546;BME280;58098;51.680;5.134;2023-02-22T02:11:48;101572.09;;;5.91;100.00
70546;BME280;58098;51.680;5.134;2023-02-22T02:14:13;101568.59;;;5.92;100.00
70546;BME280;58098;51.680;5.134;2023-02-22T02:16:45;101548.31;;;5.83;100.00
70546;BME280;58098;51.680;5.134;2023-02-22T02:36:12;101550.00;;;5.84;100.00
70546;BME280;58098;51.680;5.134;2023-02-22T02:38:54;101537.94;;;5.83;100.00
70546;BME280;58098;51.680;5.134;2023-02-22T02:41:35;101548.97;;;5.88;100.00
70546;BME280;58098;51.680;5.134;2023-02-22T02:46:49;101525.97;;;5.81;100.00
70546;BME280;58098;51.680;5.134;2023-02-22T02:49:19;101529.41;;;5.81;100.00
70546;BME280;58098;51.680;5.134;2023-02-22T02:51:49;101531.59;;;5.90;100.00
70546;BME280;58098;51.680;5.134;2023-02-22T02:54:15;101537.91;;;5.85;100.00
70546;BME280;58098;51.680;5.134;2023-02-22T02:56:41;101529.47;;;5.80;100.00
70546;BME280;58098;51.680;5.134;2023-02-22T02:59:28;101528.50;;;5.82;100.00
70546;BME280;58098;51.680;5.134;2023-02-22T03:12:46;101507.84;;;5.81;100.00
70546;BME280;58098;51.680;5.134;2023-02-22T03:18:10;101525.66;;;5.70;100.00
70546;BME280;58098;51.680;5.134;2023-02-22T03:29:05;101503.63;;;5.61;100.00
70546;BME280;58098;51.680;5.134;2023-02-22T03:31:35;101498.94;;;5.69;100.00
70546;BME280;58098;51.680;5.134;2023-02-22T03:34:07;101481.59;;;5.53;100.00
70546;BME280;58098;51.680;5.134;2023-02-22T03:36:37;101491.59;;;5.60;100.00
70546;BME280;58098;51.680;5.134;2023-02-22T03:39:08;101488.88;;;5.63;100.00
70546;BME280;58098;51.680;5.134;2023-02-22T03:41:36;101471.59;;;5.64;100.00
70546;BME280;58098;51.680;5.134;2023-02-22T03:44:10;101464.59;;;5.66;100.00
70546;BME280;58098;51.680;5.134;2023-02-22T03:46:39;101457.09;;;5.60;100.00
70546;BME280;58098;51.680;5.134;2023-02-22T03:49:16;101447.59;;;5.60;100.00
70546;BME280;58098;51.680;5.134;2023-02-22T03:51:44;101458.56;;;5.65;100.00
70546;BME280;58098;51.680;5.134;2023-02-22T03:54:10;101441.88;;;5.54;100.00
70546;BME280;58098;51.680;5.134;2023-02-22T03:56:44;101440.91;;;5.56;100.00
70546;BME280;58098;51.680;5.134;2023-02-22T03:59:14;101431.75;;;5.49;100.00
70546;BME280;58098;51.680;5.134;2023-02-22T04:01:40;101443.63;;;5.53;100.00
70546;BME280;58098;51.680;5.134;2023-02-22T04:04:05;101452.94;;;5.57;100.00
70546;BME280;58098;51.680;5.134;2023-02-22T04:06:31;101453.63;;;5.61;100.00
70546;BME280;58098;51.680;5.134;2023-02-22T04:08:56;101436.72;;;5.54;100.00
70546;BME280;58098;51.680;5.134;2023-02-22T04:11:22;101446.00;;;5.58;100.00
70546;BME280;58098;51.680;5.134;2023-02-22T04:13:47;101437.47;;;5.56;100.00
70546;BME280;58098;51.680;5.134;2023-02-22T04:16:13;101429.84;;;5.53;100.00
70546;BME280;58098;51.680;5.134;2023-02-22T04:18:38;101434.03;;;5.55;100.00
70546;BME280;58098;51.680;5.134;2023-02-22T04:21:03;101423.75;;;5.54;100.00
70546;BME280;58098;51.680;5.134;2023-02-22T04:23:29;101426.50;;;5.51;100.00
70546;BME280;58098;51.680;5.134;2023-02-22T04:25:54;101368.41;;;5.22;100.00
70546;BME280;58098;51.680;5.134;2023-02-22T04:28:20;101406.53;;;5.53;100.00
70546;BME280;58098;51.680;5.134;2023-02-22T04:30:45;101404.94;;;5.50;100.00
70546;BME280;58098;51.680;5.134;2023-02-22T04:33:14;101404.28;;;5.47;100.00
70546;BME280;58098;51.680;5.134;2023-02-22T04:35:40;101392.47;;;5.41;100.00
70546;BME280;58098;51.680;5.134;2023-02-22T04:38:05;101410.28;;;5.47;100.00
70546;BME280;58098;51.680;5.134;2023-02-22T04:40:33;101395.19;;;5.38;100.00
70546;BME280;58098;51.680;5.134;2023-02-22T04:42:58;101412.25;;;5.42;100.00
70546;BME280;58098;51.680;5.134;2023-02-22T04:45:24;101399.06;;;5.29;100.00
70546;BME280;58098;51.680;5.134;2023-02-22T04:47:49;101402.19;;;5.36;100.00
70546;BME280;58098;51.680;5.134;2023-02-22T04:50:15;101411.41;;;5.42;100.00
70546;BME280;58098;51.680;5.134;2023-02-22T04:52:40;101410.03;;;5.34;100.00
70546;BME280;58098;51.680;5.134;2023-02-22T04:55:06;101412.53;;;5.36;100.00
70546;BME280;58098;51.680;5.134;2023-02-22T04:57:32;101397.09;;;5.34;100.00
70546;BME280;58098;51.680;5.134;2023-02-22T04:59:58;101408.06;;;5.40;100.00
70546;BME280;58098;51.680;5.134;2023-02-22T05:02:23;101412.25;;;5.42;100.00
70546;BME280;58098;51.680;5.134;2023-02-22T05:04:49;101405.41;;;5.41;100.00
70546;BME280;58098;51.680;5.134;2023-02-22T05:07:15;101395.97;;;5.40;100.00
70546;BME280;58098;51.680;5.134;2023-02-22T05:09:40;101396.34;;;5.32;100.00
70546;BME280;58098;51.680;5.134;2023-02-22T05:12:06;101404.50;;;5.42;100.00
70546;BME280;58098;51.680;5.134;2023-02-22T05:14:31;101405.41;;;5.41;100.00
70546;BME280;58098;51.680;5.134;2023-02-22T05:16:57;101400.97;;;5.43;100.00
70546;BME280;58098;51.680;5.134;2023-02-22T05:19:23;101391.84;;;5.36;100.00
70546;BME280;58098;51.680;5.134;2023-02-22T05:21:49;101372.84;;;5.37;100.00
70546;BME280;58098;51.680;5.134;2023-02-22T05:24:15;101385.47;;;5.43;100.00
70546;BME280;58098;51.680;5.134;2023-02-22T05:26:42;101384.69;;;5.41;100.00
70546;BME280;58098;51.680;5.134;2023-02-22T05:29:07;101378.63;;;5.42;100.00
70546;BME280;58098;51.680;5.134;2023-02-22T05:31:33;101366.97;;;5.33;100.00
70546;BME280;58098;51.680;5.134;2023-02-22T05:33:58;101378.41;;;5.47;100.00
70546;BME280;58098;51.680;5.134;2023-02-22T05:36:23;101370.25;;;5.37;100.00
70546;BME280;58098;51.680;5.134;2023-02-22T05:38:49;101383.72;;;5.44;100.00
70546;BME280;58098;51.680;5.134;2023-02-22T05:41:14;101375.19;;;5.42;100.00
70546;BME280;58098;51.680;5.134;2023-02-22T05:43:40;101359.13;;;5.35;100.00
70546;BME280;58098;51.680;5.134;2023-02-22T05:46:05;101357.16;;;5.40;100.00
70546;BME280;58098;51.680;5.134;2023-02-22T05:48:31;101347.81;;;5.38;100.00
70546;BME280;58098;51.680;5.134;2023-02-22T05:50:57;101346.88;;;5.39;100.00
70546;BME280;58098;51.680;5.134;2023-02-22T05:53:25;101346.66;;;5.43;100.00
70546;BME280;58098;51.680;5.134;2023-02-22T05:55:51;101342.63;;;5.38;100.00
70546;BME280;58098;51.680;5.134;2023-02-22T05:58:16;101333.28;;;5.35;100.00
70546;BME280;58098;51.680;5.134;2023-02-22T06:00:42;101332.34;;;5.36;100.00
70546;BME280;58098;51.680;5.134;2023-02-22T06:03:09;101347.50;;;5.44;100.00
70546;BME280;58098;51.680;5.134;2023-02-22T06:05:35;101338.97;;;5.42;100.00
70546;BME280;58098;51.680;5.134;2023-02-22T06:08:02;101323.72;;;5.35;100.00
70546;BME280;58098;51.680;5.134;2023-02-22T06:10:28;101320.84;;;5.42;100.00
70546;BME280;58098;51.680;5.134;2023-02-22T06:12:55;101325.34;;;5.38;100.00
70546;BME280;58098;51.680;5.134;2023-02-22T06:15:22;101322.59;;;5.41;100.00
70546;BME280;58098;51.680;5.134;2023-02-22T06:17:48;101305.72;;;5.34;100.00
70546;BME280;58098;51.680;5.134;2023-02-22T06:20:15;101318.28;;;5.42;100.00
70546;BME280;58098;51.680;5.134;2023-02-22T06:22:41;101322.59;;;5.41;100.00
70546;BME280;58098;51.680;5.134;2023-02-22T06:25:08;101302.28;;;5.33;100.00
70546;BME280;58098;51.680;5.134;2023-02-22T06:27:34;101309.81;;;5.38;100.00
70546;BME280;58098;51.680;5.134;2023-02-22T06:30:00;101295.22;;;5.37;100.00
70546;BME280;58098;51.680;5.134;2023-02-22T06:32:26;101295.97;;;5.39;100.00
70546;BME280;58098;51.680;5.134;2023-02-22T06:34:51;101301.00;;;5.42;100.00
70546;BME280;58098;51.680;5.134;2023-02-22T06:37:17;101303.59;;;5.42;100.00
70546;BME280;58098;51.680;5.134;2023-02-22T06:39:42;101293.38;;;5.39;100.00
70546;BME280;58098;51.680;5.134;2023-02-22T06:42:07;101289.09;;;5.38;100.00
70546;BME280;58098;51.680;5.134;2023-02-22T06:44:33;101301.00;;;5.42;100.00
70546;BME280;58098;51.680;5.134;2023-02-22T06:46:58;101291.69;;;5.38;100.00
70546;BME280;58098;51.680;5.134;2023-02-22T06:49:25;101313.69;;;5.47;100.00
70546;BME280;58098;51.680;5.134;2023-02-22T06:51:51;101317.03;;;5.49;100.00
70546;BME280;58098;51.680;5.134;2023-02-22T06:54:17;101312.84;;;5.46;100.00
70546;BME280;58098;51.680;5.134;2023-02-22T06:56:42;101312.19;;;5.43;100.00
70546;BME280;58098;51.680;5.134;2023-02-22T06:59:07;101302.88;;;5.39;100.00
70546;BME280;58098;51.680;5.134;2023-02-22T07:01:33;101316.19;;;5.48;100.00
70546;BME280;58098;51.680;5.134;2023-02-22T07:03:58;101312.78;;;5.48;100.00
70546;BME280;58098;51.680;5.134;2023-02-22T07:06:23;101323.81;;;5.51;100.00
70546;BME280;58098;51.680;5.134;2023-02-22T07:08:49;101332.34;;;5.53;100.00
70546;BME280;58098;51.680;5.134;2023-02-22T07:11:15;101333.03;;;5.57;100.00
70546;BME280;58098;51.680;5.134;2023-02-22T07:13:41;101332.84;;;5.60;100.00
70546;BME280;58098;51.680;5.134;2023-02-22T07:16:06;101337.22;;;5.59;100.00
70546;BME280;58098;51.680;5.134;2023-02-22T07:18:32;101313.00;;;5.43;100.00
70546;BME280;58098;51.680;5.134;2023-02-22T07:20:57;101336.06;;;5.65;100.00
70546;BME280;58098;51.680;5.134;2023-02-22T07:23:23;101322.50;;;5.60;100.00
70546;BME280;58098;51.680;5.134;2023-02-22T07:25:48;101326.63;;;5.64;100.00
70546;BME280;58098;51.680;5.134;2023-02-22T07:28:14;101337.50;;;5.70;100.00
70546;BME280;58098;51.680;5.134;2023-02-22T07:30:39;101345.97;;;5.74;100.00
70546;BME280;58098;51.680;5.134;2023-02-22T07:33:10;101343.44;;;5.72;100.00
70546;BME280;58098;51.680;5.134;2023-02-22T07:35:44;101344.66;;;5.65;100.00
70546;BME280;58098;51.680;5.134;2023-02-22T07:38:11;101348.94;;;5.66;100.00
70546;BME280;58098;51.680;5.134;2023-02-22T07:40:38;101351.28;;;5.71;100.00
70546;BME280;58098;51.680;5.134;2023-02-22T07:43:12;101346.41;;;5.65;100.00
70546;BME280;58098;51.680;5.134;2023-02-22T07:45:39;101355.16;;;5.79;100.00
70546;BME280;58098;51.680;5.134;2023-02-22T07:48:04;101356.63;;;5.85;100.00
70546;BME280;58098;51.680;5.134;2023-02-22T07:50:31;101351.66;;;5.80;100.00
70546;BME280;58098;51.680;5.134;2023-02-22T07:52:59;101363.91;;;5.94;100.00
70546;BME280;58098;51.680;5.134;2023-02-22T07:55:27;101365.69;;;5.93;100.00
70546;BME280;58098;51.680;5.134;2023-02-22T07:57:55;101350.47;;;5.87;100.00
70546;BME280;58098;51.680;5.134;2023-02-22T08:00:24;101353.88;;;5.88;100.00
70546;BME280;58098;51.680;5.134;2023-02-22T08:02:50;101353.41;;;5.97;100.00
70546;BME280;58098;51.680;5.134;2023-02-22T08:05:16;101359.09;;;6.04;100.00
70546;BME280;58098;51.680;5.134;2023-02-22T08:07:41;101349.44;;;6.07;100.00
70546;BME280;58098;51.680;5.134;2023-02-22T08:10:08;101344.00;;;6.12;100.00
70546;BME280;58098;51.680;5.134;2023-02-22T08:12:35;101321.03;;;6.06;100.00
70546;BME280;58098;51.680;5.134;2023-02-22T08:15:02;101324.88;;;6.14;100.00
70546;BME280;58098;51.680;5.134;2023-02-22T08:17:28;101336.44;;;6.24;100.00
70546;BME280;58098;51.680;5.134;2023-02-22T08:19:53;101328.56;;;6.26;100.00
70546;BME280;58098;51.680;5.134;2023-02-22T08:22:19;101314.53;;;6.30;100.00
70546;BME280;58098;51.680;5.134;2023-02-22T08:24:44;101325.75;;;6.46;100.00
70546;BME280;58098;51.680;5.134;2023-02-22T08:27:10;101307.69;;;6.44;100.00
70546;BME280;58098;51.680;5.134;2023-02-22T08:29:35;101304.59;;;6.53;100.00
70546;BME280;58098;51.680;5.134;2023-02-22T08:32:00;101319.56;;;6.64;100.00
70546;BME280;58098;51.680;5.134;2023-02-22T08:34:26;101310.84;;;6.65;100.00
70546;BME280;58098;51.680;5.134;2023-02-22T08:36:52;101319.47;;;6.81;100.00
70546;BME280;58098;51.680;5.134;2023-02-22T08:39:17;101301.66;;;6.75;100.00
70546;BME280;58098;51.680;5.134;2023-02-22T08:41:43;101315.25;;;6.94;100.00
70546;BME280;58098;51.680;5.134;2023-02-22T08:44:09;101310.81;;;6.96;100.00
70546;BME280;58098;51.680;5.134;2023-02-22T08:46:34;101321.50;;;7.06;100.00
70546;BME280;58098;51.680;5.134;2023-02-22T08:48:59;101312.25;;;7.02;100.00
70546;BME280;58098;51.680;5.134;2023-02-22T08:51:25;101320.34;;;7.11;100.00
70546;BME280;58098;51.680;5.134;2023-02-22T08:53:51;101317.41;;;7.17;100.00
70546;BME280;58098;51.680;5.134;2023-02-22T08:56:17;101310.94;;;7.24;100.00
70546;BME280;58098;51.680;5.134;2023-02-22T08:58:43;101305.47;;;7.29;100.00
70546;BME280;58098;51.680;5.134;2023-02-22T09:01:08;101313.88;;;7.48;100.00
70546;BME280;58098;51.680;5.134;2023-02-22T09:03:33;101296.53;;;7.49;100.00
70546;BME280;58098;51.680;5.134;2023-02-22T09:05:59;101282.59;;;7.50;100.00
70546;BME280;58098;51.680;5.134;2023-02-22T09:08:24;101287.84;;;7.64;100.00
70546;BME280;58098;51.680;5.134;2023-02-22T09:10:49;101278.75;;;7.71;100.00
70546;BME280;58098;51.680;5.134;2023-02-22T09:13:15;101260.28;;;7.75;100.00
70546;BME280;58098;51.680;5.134;2023-02-22T09:15:40;101259.66;;;7.86;100.00
70546;BME280;58098;51.680;5.134;2023-02-22T09:18:09;101254.25;;;7.89;100.00
70546;BME280;58098;51.680;5.134;2023-02-22T09:20:35;101257.94;;;7.99;100.00
70546;BME280;58098;51.680;5.134;2023-02-22T09:23:01;101243.50;;;7.95;100.00
70546;BME280;58098;51.680;5.134;2023-02-22T09:25:28;101267.78;;;8.08;100.00
70546;BME280;58098;51.680;5.134;2023-02-22T09:27:54;101260.53;;;8.13;100.00
70546;BME280;58098;51.680;5.134;2023-02-22T09:30:27;101268.34;;;8.27;100.00
70546;BME280;58098;51.680;5.134;2023-02-22T09:32:58;101263.50;;;8.35;100.00
70546;BME280;58098;51.680;5.134;2023-02-22T09:35:24;101272.56;;;8.42;100.00
70546;BME280;58098;51.680;5.134;2023-02-22T09:37:52;101262.72;;;8.47;100.00
70546;BME280;58098;51.680;5.134;2023-02-22T09:40:18;101266.59;;;8.54;100.00
70546;BME280;58098;51.680;5.134;2023-02-22T09:43:15;101270.44;;;8.76;100.00
70546;BME280;58098;51.680;5.134;2023-02-22T09:45:57;101270.44;;;8.76;100.00
70546;BME280;58098;51.680;5.134;2023-02-22T09:48:33;101267.31;;;8.71;100.00
70546;BME280;58098;51.680;5.134;2023-02-22T09:51:02;101262.94;;;8.71;100.00
70546;BME280;58098;51.680;5.134;2023-02-22T09:53:44;101279.94;;;8.89;100.00
70546;BME280;58098;51.680;5.134;2023-02-22T09:56:13;101272.78;;;8.93;100.00
70546;BME280;58098;51.680;5.134;2023-02-22T09:58:42;101251.44;;;8.88;100.00
70546;BME280;58098;51.680;5.134;2023-02-22T10:03:49;101258.31;;;9.01;100.00
70546;BME280;58098;51.680;5.134;2023-02-22T10:06:18;101262.09;;;9.10;100.00
70546;BME280;58098;51.680;5.134;2023-02-22T10:08:45;101258.66;;;9.09;100.00
70546;BME280;58098;51.680;5.134;2023-02-22T10:17:12;101257.53;;;9.26;100.00
70546;BME280;58098;51.680;5.134;2023-02-22T10:25:25;101258.28;;;9.28;100.00
70546;BME280;58098;51.680;5.134;2023-02-22T10:28:04;101271.63;;;9.36;100.00
70546;BME280;58098;51.680;5.134;2023-02-22T10:31:04;101276.94;;;9.47;100.00
70546;BME280;58098;51.680;5.134;2023-02-22T10:33:36;101278.09;;;9.43;100.00
70546;BME280;58098;51.680;5.134;2023-02-22T10:36:02;101259.72;;;9.32;100.00
70546;BME280;58098;51.680;5.134;2023-02-22T10:38:29;101274.31;;;9.47;100.00
70546;BME280;58098;51.680;5.134;2023-02-22T10:40:59;101257.66;;;9.37;100.00
70546;BME280;58098;51.680;5.134;2023-02-22T10:43:27;101256.41;;;9.43;100.00
70546;BME280;58098;51.680;5.134;2023-02-22T10:45:55;101274.34;;;9.60;100.00
70546;BME280;58098;51.680;5.134;2023-02-22T10:48:23;101269.53;;;9.66;100.00
70546;BME280;58098;51.680;5.134;2023-02-22T10:50:59;101268.41;;;9.70;100.00
70546;BME280;58098;51.680;5.134;2023-02-22T10:53:26;101265.16;;;9.67;100.00
70546;BME280;58098;51.680;5.134;2023-02-22T10:58:40;101256.09;;;9.85;100.00
70546;BME280;58098;51.680;5.134;2023-02-22T11:04:12;101272.84;;;10.19;100.00
70546;BME280;58098;51.680;5.134;2023-02-22T11:06:41;101252.84;;;10.19;100.00
70546;BME280;58098;51.680;5.134;2023-02-22T11:11:38;101249.25;;;10.08;100.00
70546;BME280;58098;51.680;5.134;2023-02-22T11:14:04;101244.69;;;10.11;100.00
70546;BME280;58098;51.680;5.134;2023-02-22T11:16:41;101248.88;;;10.01;100.00
70546;BME280;58098;51.680;5.134;2023-02-22T11:21:37;101243.25;;;9.94;100.00
70546;BME280;58098;51.680;5.134;2023-02-22T11:24:09;101241.47;;;9.95;100.00
70546;BME280;58098;51.680;5.134;2023-02-22T11:26:58;101256.16;;;10.09;100.00
70546;BME280;58098;51.680;5.134;2023-02-22T11:29:28;101246.25;;;10.01;100.00
70546;BME280;58098;51.680;5.134;2023-02-22T11:32:00;101243.31;;;10.06;100.00
70546;BME280;58098;51.680;5.134;2023-02-22T11:34:30;101254.25;;;10.11;100.00
70546;BME280;58098;51.680;5.134;2023-02-22T11:36:56;101248.22;;;10.10;100.00
70546;BME280;58098;51.680;5.134;2023-02-22T11:39:38;101233.41;;;10.11;100.00
70546;BME280;58098;51.680;5.134;2023-02-22T11:42:24;101212.72;;;10.33;100.00
70546;BME280;58098;51.680;5.134;2023-02-22T11:45:20;101218.75;;;10.57;100.00
70546;BME280;58098;51.680;5.134;2023-02-22T11:53:04;101204.09;;;11.02;100.00
70546;BME280;58098;51.680;5.134;2023-02-22T11:55:52;101202.63;;;11.21;100.00
70546;BME280;58098;51.680;5.134;2023-02-22T11:58:47;101199.53;;;11.50;100.00
70546;BME280;58098;51.680;5.134;2023-02-22T12:07:19;101179.31;;;12.18;100.00
70546;BME280;58098;51.680;5.134;2023-02-22T12:09:50;101185.72;;;12.25;100.00
70546;BME280;58098;51.680;5.134;2023-02-22T12:12:34;101182.06;;;12.17;100.00
70546;BME280;58098;51.680;5.134;2023-02-22T12:20:21;101163.16;;;12.13;100.00
70546;BME280;58098;51.680;5.134;2023-02-22T12:23:15;101182.16;;;12.26;100.00
70546;BME280;58098;51.680;5.134;2023-02-22T12:25:53;101176.97;;;12.04;100.00
70546;BME280;58098;51.680;5.134;2023-02-22T12:31:22;101156.75;;;11.95;100.00
70546;BME280;58098;51.680;5.134;2023-02-22T12:34:14;101174.56;;;12.12;100.00
70546;BME280;58098;51.680;5.134;2023-02-22T12:36:47;101160.44;;;12.04;100.00
70546;BME280;58098;51.680;5.134;2023-02-22T12:39:26;101172.88;;;12.22;100.00
70546;BME280;58098;51.680;5.134;2023-02-22T12:41:55;101168.94;;;12.28;100.00
70546;BME280;58098;51.680;5.134;2023-02-22T12:44:34;101173.41;;;12.37;100.00
70546;BME280;58098;51.680;5.134;2023-02-22T12:47:00;101179.63;;;12.25;100.00
70546;BME280;58098;51.680;5.134;2023-02-22T12:49:37;101198.41;;;12.30;100.00
70546;BME280;58098;51.680;5.134;2023-02-22T12:52:22;101192.16;;;12.10;100.00
70546;BME280;58098;51.680;5.134;2023-02-22T12:55:09;101195.28;;;11.93;100.00
70546;BME280;58098;51.680;5.134;2023-02-22T12:57:48;101177.25;;;11.68;100.00
70546;BME280;58098;51.680;5.134;2023-02-22T13:05:39;101199.06;;;11.67;100.00
70546;BME280;58098;51.680;5.134;2023-02-22T13:08:33;101185.81;;;11.70;100.00
70546;BME280;58098;51.680;5.134;2023-02-22T13:13:55;101191.22;;;11.45;100.00
70546;BME280;58098;51.680;5.134;2023-02-22T13:16:47;101195.25;;;11.49;100.00
70546;BME280;58098;51.680;5.134;2023-02-22T13:22:14;101186.34;;;11.40;100.00
70546;BME280;58098;51.680;5.134;2023-02-22T13:25:03;101197.63;;;11.52;100.00
70546;BME280;58098;51.680;5.134;2023-02-22T13:27:46;101192.44;;;11.63;100.00
70546;BME280;58098;51.680;5.134;2023-02-22T13:30:20;101173.88;;;11.55;100.00
70546;BME280;58098;51.680;5.134;2023-02-22T13:33:00;101181.97;;;11.52;100.00
70546;BME280;58098;51.680;5.134;2023-02-22T13:35:54;101179.94;;;11.55;100.00
70546;BME280;58098;51.680;5.134;2023-02-22T13:49:40;101197.78;;;11.95;100.00
70546;BME280;58098;51.680;5.134;2023-02-22T13:52:15;101176.28;;;11.69;100.00
70546;BME280;58098;51.680;5.134;2023-02-22T13:54:45;101178.41;;;11.86;100.00
70546;BME280;58098;51.680;5.134;2023-02-22T13:57:20;101197.53;;;12.09;100.00
70546;BME280;58098;51.680;5.134;2023-02-22T13:59:46;101194.06;;;11.64;100.00
70546;BME280;58098;51.680;5.134;2023-02-22T14:02:55;101187.91;;;11.54;100.00
70546;BME280;58098;51.680;5.134;2023-02-22T14:11:06;101202.88;;;11.63;100.00
70546;BME280;58098;51.680;5.134;2023-02-22T14:16:29;101202.91;;;11.74;100.00
70546;BME280;58098;51.680;5.134;2023-02-22T14:22:03;101192.31;;;11.75;100.00
70546;BME280;58098;51.680;5.134;2023-02-22T14:24:50;101215.25;;;11.94;100.00
70546;BME280;58098;51.680;5.134;2023-02-22T14:27:15;101194.34;;;11.61;100.00
70546;BME280;58098;51.680;5.134;2023-02-22T14:29:56;101191.47;;;11.53;100.00
70546;BME280;58098;51.680;5.134;2023-02-22T14:32:32;101205.13;;;11.56;100.00
70546;BME280;58098;51.680;5.134;2023-02-22T14:35:04;101208.69;;;11.44;100.00
70546;BME280;58098;51.680;5.134;2023-02-22T14:37:37;101161.75;;;11.09;100.00
70546;BME280;58098;51.680;5.134;2023-02-22T14:40:10;101211.78;;;11.38;100.00
70546;BME280;58098;51.680;5.134;2023-02-22T14:42:49;101207.72;;;11.34;100.00
70546;BME280;58098;51.680;5.134;2023-02-22T14:45:22;101210.09;;;11.37;100.00
70546;BME280;58098;51.680;5.134;2023-02-22T14:50:42;101211.66;;;11.28;100.00
70546;BME280;58098;51.680;5.134;2023-02-22T14:56:18;101205.66;;;11.04;100.00
70546;BME280;58098;51.680;5.134;2023-02-22T14:58:57;101198.53;;;11.06;100.00
70546;BME280;58098;51.680;5.134;2023-02-22T15:01:36;101195.44;;;11.01;100.00
70546;BME280;58098;51.680;5.134;2023-02-22T15:06:46;101205.88;;;11.01;100.00
70546;BME280;58098;51.680;5.134;2023-02-22T15:09:17;101202.16;;;10.93;100.00